sensor_id;sensor_type;location;lat;lon;timestamp;noise_LAeq;noise_LA_min;noise_LA_max;noise_LA01;noise_LA95
37833;Laerm;23678;48.778;9.160;2023-04-25T00:05:44;37.33;30.89;44.11;;
37833;Laerm;23678;48.778;9.160;2023-04-25T00:08:29;37.80;32.35;46.28;;
37833;Laerm;23678;48.778;9.160;2023-04-25T00:11:14;37.13;31.68;42.76;;
37833;Laerm;23678;48.778;9.160;2023-04-25T00:13:58;38.57;31.68;52.93;;
37833;Laerm;23678;48.778;9.160;2023-04-25T00:16:43;36.92;30.89;40.71;;
37833;Laerm;23678;48.778;9.160;2023-04-25T00:19:28;36.92;30.89;40.03;;
37833;Laerm;23678;48.778;9.160;2023-04-25T00:22:12;37.12;31.68;40.43;;
37833;Laerm;23678;48.778;9.160;2023-04-25T00:24:56;37.10;31.68;40.13;;
37833;Laerm;23678;48.778;9.160;2023-04-25T00:27:43;37.00;31.68;39.58;;
37833;Laerm;23678;48.778;9.160;2023-04-25T00:30:27;37.13;31.68;40.23;;
37833;Laerm;23678;48.778;9.160;2023-04-25T00:33:11;37.15;32.35;41.38;;
37833;Laerm;23678;48.778;9.160;2023-04-25T00:35:55;37.06;30.89;40.71;;
37833;Laerm;23678;48.778;9.160;2023-04-25T00:38:39;38.39;28.67;49.49;;
37833;Laerm;23678;48.778;9.160;2023-04-25T00:41:23;37.08;31.68;41.14;;
37833;Laerm;23678;48.778;9.160;2023-04-25T00:44:09;36.97;31.68;40.23;;
37833;Laerm;23678;48.778;9.160;2023-04-25T00:46:54;37.20;31.68;40.33;;
37833;Laerm;23678;48.778;9.160;2023-04-25T00:49:38;36.97;26.91;39.70;;
37833;Laerm;23678;48.778;9.160;2023-04-25T00:52:22;37.05;29.92;41.14;;
37833;Laerm;23678;48.778;9.160;2023-04-25T00:55:06;37.41;31.68;45.23;;
37833;Laerm;23678;48.778;9.160;2023-04-25T00:57:51;37.90;30.89;47.81;;
37833;Laerm;23678;48.778;9.160;2023-04-25T01:00:35;37.01;32.35;40.13;;
37833;Laerm;23678;48.778;9.160;2023-04-25T01:03:19;37.02;30.89;39.92;;
37833;Laerm;23678;48.778;9.160;2023-04-25T01:06:04;36.99;31.68;40.33;;
37833;Laerm;23678;48.778;9.160;2023-04-25T01:08:48;36.99;28.67;39.81;;
37833;Laerm;23678;48.778;9.160;2023-04-25T01:11:33;36.95;31.68;39.92;;
37833;Laerm;23678;48.778;9.160;2023-04-25T01:14:17;36.99;31.68;39.92;;
37833;Laerm;23678;48.778;9.160;2023-04-25T01:17:01;37.02;31.68;41.22;;
37833;Laerm;23678;48.778;9.160;2023-04-25T01:19:45;36.99;31.68;46.28;;
37833;Laerm;23678;48.778;9.160;2023-04-25T01:22:31;36.97;31.68;39.81;;
37833;Laerm;23678;48.778;9.160;2023-04-25T01:25:16;37.02;29.92;39.92;;
37833;Laerm;23678;48.778;9.160;2023-04-25T01:28:00;36.98;30.89;39.70;;
37833;Laerm;23678;48.778;9.160;2023-04-25T01:30:44;37.08;28.67;40.88;;
37833;Laerm;23678;48.778;9.160;2023-04-25T01:36:59;38.12;31.68;51.99;;
37833;Laerm;23678;48.778;9.160;2023-04-25T01:39:43;37.05;29.57;39.70;;
37833;Laerm;23678;48.778;9.160;2023-04-25T01:42:27;37.05;30.89;39.81;;
37833;Laerm;23678;48.778;9.160;2023-04-25T01:45:11;37.04;30.89;40.03;;
37833;Laerm;23678;48.778;9.160;2023-04-25T01:47:55;37.20;29.92;41.53;;
37833;Laerm;23678;48.778;9.160;2023-04-25T01:50:42;37.03;29.92;39.92;;
37833;Laerm;23678;48.778;9.160;2023-04-25T01:53:26;37.05;30.54;39.92;;
37833;Laerm;23678;48.778;9.160;2023-04-25T01:56:10;37.03;26.91;40.03;;
37833;Laerm;23678;48.778;9.160;2023-04-25T01:58:54;37.03;29.92;39.81;;
37833;Laerm;23678;48.778;9.160;2023-04-25T02:01:38;37.03;29.92;40.03;;
37833;Laerm;23678;48.778;9.160;2023-04-25T02:04:22;37.03;31.68;40.03;;
37833;Laerm;23678;48.778;9.160;2023-04-25T02:07:06;37.04;30.89;40.03;;
37833;Laerm;23678;48.778;9.160;2023-04-25T02:09:50;37.03;32.35;39.81;;
37833;Laerm;23678;48.778;9.160;2023-04-25T02:12:34;37.02;30.89;39.70;;
37833;Laerm;23678;48.778;9.160;2023-04-25T02:15:19;37.02;30.89;39.68;;
37833;Laerm;23678;48.778;9.160;2023-04-25T02:18:03;37.08;30.89;39.92;;
37833;Laerm;23678;48.778;9.160;2023-04-25T02:20:47;37.15;31.68;40.98;;
37833;Laerm;23678;48.778;9.160;2023-04-25T02:23:30;37.00;30.89;40.13;;
37833;Laerm;23678;48.778;9.160;2023-04-25T02:26:14;37.53;31.68;42.98;;
37833;Laerm;23678;48.778;9.160;2023-04-25T02:28:58;37.35;32.35;43.09;;
37833;Laerm;23678;48.778;9.160;2023-04-25T02:31:42;37.12;30.89;40.33;;
37833;Laerm;23678;48.778;9.160;2023-04-25T02:34:26;37.38;28.67;42.29;;
37833;Laerm;23678;48.778;9.160;2023-04-25T02:37:10;37.17;31.68;40.53;;
37833;Laerm;23678;48.778;9.160;2023-04-25T02:39:54;38.05;31.68;42.09;;
37833;Laerm;23678;48.778;9.160;2023-04-25T02:42:38;37.24;32.35;40.03;;
37833;Laerm;23678;48.778;9.160;2023-04-25T02:45:40;38.04;30.89;43.34;;
37833;Laerm;23678;48.778;9.160;2023-04-25T02:48:43;37.82;31.68;45.20;;
37833;Laerm;23678;48.778;9.160;2023-04-25T02:51:27;38.94;32.93;51.99;;
37833;Laerm;23678;48.778;9.160;2023-04-25T02:54:11;38.98;32.35;51.91;;
37833;Laerm;23678;48.778;9.160;2023-04-25T02:56:55;39.19;32.93;52.83;;
37833;Laerm;23678;48.778;9.160;2023-04-25T02:59:39;39.30;32.93;53.63;;
37833;Laerm;23678;48.778;9.160;2023-04-25T03:02:23;39.36;32.93;53.17;;
37833;Laerm;23678;48.778;9.160;2023-04-25T03:05:07;39.43;31.68;55.80;;
37833;Laerm;23678;48.778;9.160;2023-04-25T03:07:51;39.82;33.09;55.70;;
37833;Laerm;23678;48.778;9.160;2023-04-25T03:10:35;41.18;32.93;56.10;;
37833;Laerm;23678;48.778;9.160;2023-04-25T03:13:19;42.96;31.68;55.48;;
37833;Laerm;23678;48.778;9.160;2023-04-25T03:16:03;41.04;32.93;56.61;;
37833;Laerm;23678;48.778;9.160;2023-04-25T03:18:47;40.21;33.09;55.73;;
37833;Laerm;23678;48.778;9.160;2023-04-25T03:21:31;40.10;33.44;54.21;;
37833;Laerm;23678;48.778;9.160;2023-04-25T03:24:18;40.03;32.93;47.74;;
37833;Laerm;23678;48.778;9.160;2023-04-25T03:27:02;39.70;31.68;47.32;;
37833;Laerm;23678;48.778;9.160;2023-04-25T03:29:46;42.46;33.90;55.09;;
37833;Laerm;23678;48.778;9.160;2023-04-25T03:32:30;43.31;32.93;55.74;;
37833;Laerm;23678;48.778;9.160;2023-04-25T03:35:14;43.12;33.90;55.60;;
37833;Laerm;23678;48.778;9.160;2023-04-25T03:37:58;42.51;32.93;55.12;;
37833;Laerm;23678;48.778;9.160;2023-04-25T03:40:42;38.85;32.93;45.36;;
37833;Laerm;23678;48.778;9.160;2023-04-25T03:43:26;40.80;33.90;53.71;;
37833;Laerm;23678;48.778;9.160;2023-04-25T03:46:10;41.95;33.44;55.15;;
37833;Laerm;23678;48.778;9.160;2023-04-25T03:48:54;40.39;32.35;53.41;;
37833;Laerm;23678;48.778;9.160;2023-04-25T03:51:38;38.21;32.35;44.69;;
37833;Laerm;23678;48.778;9.160;2023-04-25T03:54:22;38.05;33.44;42.47;;
37833;Laerm;23678;48.778;9.160;2023-04-25T03:57:06;38.78;32.93;45.57;;
37833;Laerm;23678;48.778;9.160;2023-04-25T03:59:50;40.37;32.93;51.79;;
37833;Laerm;23678;48.778;9.160;2023-04-25T04:02:34;38.74;32.35;44.69;;
37833;Laerm;23678;48.778;9.160;2023-04-25T04:05:20;37.67;32.35;42.16;;
37833;Laerm;23678;48.778;9.160;2023-04-25T04:08:04;38.52;33.44;50.33;;
37833;Laerm;23678;48.778;9.160;2023-04-25T04:10:48;37.68;31.68;49.85;;
37833;Laerm;23678;48.778;9.160;2023-04-25T04:13:32;38.71;32.35;44.39;;
37833;Laerm;23678;48.778;9.160;2023-04-25T04:16:16;37.74;32.93;43.33;;
37833;Laerm;23678;48.778;9.160;2023-04-25T04:18:59;38.31;33.44;45.04;;
37833;Laerm;23678;48.778;9.160;2023-04-25T04:21:43;39.56;32.93;51.70;;
37833;Laerm;23678;48.778;9.160;2023-04-25T04:24:27;40.94;33.44;50.64;;
37833;Laerm;23678;48.778;9.160;2023-04-25T04:27:11;40.78;35.04;50.15;;
37833;Laerm;23678;48.778;9.160;2023-04-25T04:29:56;39.70;33.90;48.05;;
37833;Laerm;23678;48.778;9.160;2023-04-25T04:32:41;40.82;35.94;52.00;;
37833;Laerm;23678;48.778;9.160;2023-04-25T04:35:25;42.38;32.35;57.56;;
37833;Laerm;23678;48.778;9.160;2023-04-25T04:38:09;42.35;34.31;58.28;;
37833;Laerm;23678;48.778;9.160;2023-04-25T04:40:54;41.37;35.66;51.93;;
37833;Laerm;23678;48.778;9.160;2023-04-25T04:43:39;41.92;34.31;53.86;;
37833;Laerm;23678;48.778;9.160;2023-04-25T04:46:23;40.75;33.90;53.46;;
37833;Laerm;23678;48.778;9.160;2023-04-25T04:49:08;42.51;34.69;56.06;;
37833;Laerm;23678;48.778;9.160;2023-04-25T04:51:52;40.00;34.31;49.11;;
37833;Laerm;23678;48.778;9.160;2023-04-25T04:57:59;40.60;34.31;52.16;;
37833;Laerm;23678;48.778;9.160;2023-04-25T05:00:44;43.96;34.69;53.91;;
37833;Laerm;23678;48.778;9.160;2023-04-25T05:03:28;41.38;34.69;51.44;;
37833;Laerm;23678;48.778;9.160;2023-04-25T05:06:11;40.51;33.44;51.84;;
37833;Laerm;23678;48.778;9.160;2023-04-25T05:08:56;42.58;35.31;52.19;;
37833;Laerm;23678;48.778;9.160;2023-04-25T05:11:40;41.22;34.31;50.12;;
37833;Laerm;23678;48.778;9.160;2023-04-25T05:14:24;40.98;34.69;57.90;;
37833;Laerm;23678;48.778;9.160;2023-04-25T05:17:08;40.55;33.90;49.07;;
37833;Laerm;23678;48.778;9.160;2023-04-25T05:19:52;40.58;34.69;47.79;;
37833;Laerm;23678;48.778;9.160;2023-04-25T05:22:36;40.48;35.36;49.89;;
37833;Laerm;23678;48.778;9.160;2023-04-25T05:25:20;43.58;35.94;59.08;;
37833;Laerm;23678;48.778;9.160;2023-04-25T05:28:04;41.88;35.66;53.65;;
37833;Laerm;23678;48.778;9.160;2023-04-25T05:30:49;39.94;34.31;46.95;;
37833;Laerm;23678;48.778;9.160;2023-04-25T05:36:41;42.64;35.66;60.39;;
37833;Laerm;23678;48.778;9.160;2023-04-25T05:39:25;40.73;35.36;48.46;;
37833;Laerm;23678;48.778;9.160;2023-04-25T05:42:09;40.88;35.66;48.51;;
37833;Laerm;23678;48.778;9.160;2023-04-25T05:44:54;42.93;35.04;54.52;;
37833;Laerm;23678;48.778;9.160;2023-04-25T05:47:38;41.45;34.69;52.93;;
37833;Laerm;23678;48.778;9.160;2023-04-25T05:50:22;41.20;35.04;50.58;;
37833;Laerm;23678;48.778;9.160;2023-04-25T05:53:06;41.77;35.36;57.33;;
37833;Laerm;23678;48.778;9.160;2023-04-25T05:55:50;41.55;35.66;60.26;;
37833;Laerm;23678;48.778;9.160;2023-04-25T05:58:34;40.24;34.69;45.60;;
37833;Laerm;23678;48.778;9.160;2023-04-25T06:01:17;41.31;35.36;49.83;;
37833;Laerm;23678;48.778;9.160;2023-04-25T06:04:01;42.28;35.04;49.02;;
37833;Laerm;23678;48.778;9.160;2023-04-25T06:06:46;40.15;34.69;51.18;;
37833;Laerm;23678;48.778;9.160;2023-04-25T06:09:30;40.06;34.69;56.24;;
37833;Laerm;23678;48.778;9.160;2023-04-25T06:12:13;41.42;35.66;48.12;;
37833;Laerm;23678;48.778;9.160;2023-04-25T06:14:57;40.09;34.31;48.53;;
37833;Laerm;23678;48.778;9.160;2023-04-25T06:17:41;39.71;34.69;50.43;;
37833;Laerm;23678;48.778;9.160;2023-04-25T06:20:25;40.66;34.69;50.70;;
37833;Laerm;23678;48.778;9.160;2023-04-25T06:23:09;41.07;35.66;49.21;;
37833;Laerm;23678;48.778;9.160;2023-04-25T06:25:53;41.41;34.31;52.58;;
37833;Laerm;23678;48.778;9.160;2023-04-25T06:28:37;41.17;34.69;52.37;;
37833;Laerm;23678;48.778;9.160;2023-04-25T06:31:21;41.80;33.44;53.22;;
37833;Laerm;23678;48.778;9.160;2023-04-25T06:34:05;40.94;35.04;50.71;;
37833;Laerm;23678;48.778;9.160;2023-04-25T06:36:49;42.17;35.66;52.12;;
37833;Laerm;23678;48.778;9.160;2023-04-25T06:39:32;41.42;32.93;55.09;;
37833;Laerm;23678;48.778;9.160;2023-04-25T06:42:16;40.43;34.31;53.30;;
37833;Laerm;23678;48.778;9.160;2023-04-25T06:45:00;39.78;32.93;50.65;;
37833;Laerm;23678;48.778;9.160;2023-04-25T06:47:44;41.23;35.66;59.40;;
37833;Laerm;23678;48.778;9.160;2023-04-25T06:50:28;41.40;34.69;58.12;;
37833;Laerm;23678;48.778;9.160;2023-04-25T06:53:12;41.69;35.66;53.69;;
37833;Laerm;23678;48.778;9.160;2023-04-25T06:55:56;40.41;35.36;48.57;;
37833;Laerm;23678;48.778;9.160;2023-04-25T06:58:40;39.95;35.36;58.78;;
37833;Laerm;23678;48.778;9.160;2023-04-25T07:01:24;41.08;34.69;56.18;;
37833;Laerm;23678;48.778;9.160;2023-04-25T07:04:08;40.76;34.31;54.20;;
37833;Laerm;23678;48.778;9.160;2023-04-25T07:06:52;40.46;32.35;50.59;;
37833;Laerm;23678;48.778;9.160;2023-04-25T07:09:37;40.44;35.04;48.48;;
37833;Laerm;23678;48.778;9.160;2023-04-25T07:12:20;41.39;34.31;49.95;;
37833;Laerm;23678;48.778;9.160;2023-04-25T07:15:05;45.68;34.69;63.05;;
37833;Laerm;23678;48.778;9.160;2023-04-25T07:17:49;41.34;33.44;54.87;;
37833;Laerm;23678;48.778;9.160;2023-04-25T07:20:33;40.41;35.04;50.34;;
37833;Laerm;23678;48.778;9.160;2023-04-25T07:23:17;41.67;34.69;52.45;;
37833;Laerm;23678;48.778;9.160;2023-04-25T07:26:01;40.75;34.31;49.30;;
37833;Laerm;23678;48.778;9.160;2023-04-25T07:28:45;40.74;35.04;54.01;;
37833;Laerm;23678;48.778;9.160;2023-04-25T07:31:33;41.90;36.91;54.36;;
37833;Laerm;23678;48.778;9.160;2023-04-25T07:34:17;42.29;36.69;57.18;;
37833;Laerm;23678;48.778;9.160;2023-04-25T07:37:01;40.35;35.04;57.70;;
37833;Laerm;23678;48.778;9.160;2023-04-25T07:39:45;42.34;36.20;57.27;;
37833;Laerm;23678;48.778;9.160;2023-04-25T07:42:30;40.29;34.31;63.18;;
37833;Laerm;23678;48.778;9.160;2023-04-25T07:45:14;42.90;36.20;54.59;;
37833;Laerm;23678;48.778;9.160;2023-04-25T07:47:59;38.72;34.31;49.36;;
37833;Laerm;23678;48.778;9.160;2023-04-25T07:50:43;43.62;36.20;52.73;;
37833;Laerm;23678;48.778;9.160;2023-04-25T07:53:27;46.00;36.20;58.84;;
37833;Laerm;23678;48.778;9.160;2023-04-25T07:56:11;43.45;36.91;66.72;;
37833;Laerm;23678;48.778;9.160;2023-04-25T07:58:55;42.53;36.91;66.03;;
37833;Laerm;23678;48.778;9.160;2023-04-25T08:01:39;43.48;35.86;55.05;;
37833;Laerm;23678;48.778;9.160;2023-04-25T08:04:23;42.07;37.12;53.52;;
37833;Laerm;23678;48.778;9.160;2023-04-25T08:07:07;39.55;33.90;48.38;;
37833;Laerm;23678;48.778;9.160;2023-04-25T08:09:51;47.62;35.66;65.55;;
37833;Laerm;23678;48.778;9.160;2023-04-25T08:12:35;41.94;35.94;63.31;;
37833;Laerm;23678;48.778;9.160;2023-04-25T08:15:19;40.35;35.94;54.73;;
37833;Laerm;23678;48.778;9.160;2023-04-25T08:18:02;41.37;36.45;57.92;;
37833;Laerm;23678;48.778;9.160;2023-04-25T08:20:46;39.66;35.04;46.62;;
37833;Laerm;23678;48.778;9.160;2023-04-25T08:23:30;41.95;36.69;64.54;;
37833;Laerm;23678;48.778;9.160;2023-04-25T08:26:15;41.96;36.45;53.44;;
37833;Laerm;23678;48.778;9.160;2023-04-25T08:28:58;41.87;35.36;53.74;;
37833;Laerm;23678;48.778;9.160;2023-04-25T08:31:42;42.05;34.69;54.05;;
37833;Laerm;23678;48.778;9.160;2023-04-25T08:34:26;41.92;35.94;54.35;;
37833;Laerm;23678;48.778;9.160;2023-04-25T08:37:10;41.07;35.94;52.70;;
37833;Laerm;23678;48.778;9.160;2023-04-25T08:39:54;40.00;35.36;51.57;;
37833;Laerm;23678;48.778;9.160;2023-04-25T08:42:40;42.92;35.04;57.83;;
37833;Laerm;23678;48.778;9.160;2023-04-25T08:45:26;42.33;35.66;56.09;;
37833;Laerm;23678;48.778;9.160;2023-04-25T08:48:13;43.66;36.69;53.34;;
37833;Laerm;23678;48.778;9.160;2023-04-25T08:50:58;43.02;37.52;50.49;;
37833;Laerm;23678;48.778;9.160;2023-04-25T08:53:44;41.30;35.94;51.36;;
37833;Laerm;23678;48.778;9.160;2023-04-25T08:56:29;40.69;35.04;62.39;;
37833;Laerm;23678;48.778;9.160;2023-04-25T08:59:18;42.56;35.66;55.14;;
37833;Laerm;23678;48.778;9.160;2023-04-25T09:02:02;43.85;37.32;60.59;;
37833;Laerm;23678;48.778;9.160;2023-04-25T09:04:46;41.93;36.45;57.27;;
37833;Laerm;23678;48.778;9.160;2023-04-25T10:37:11;42.79;36.91;67.49;;
37833;Laerm;23678;48.778;9.160;2023-04-25T10:39:54;41.12;38.21;60.54;;
37833;Laerm;23678;48.778;9.160;2023-04-25T10:42:38;44.08;37.70;63.74;;
37833;Laerm;23678;48.778;9.160;2023-04-25T10:54:58;40.09;36.20;62.07;;
37833;Laerm;23678;48.778;9.160;2023-04-25T10:57:42;44.70;37.88;60.91;;
37833;Laerm;23678;48.778;9.160;2023-04-25T11:00:27;43.24;37.32;70.74;;
37833;Laerm;23678;48.778;9.160;2023-04-25T11:03:15;44.35;37.52;66.57;;
37833;Laerm;23678;48.778;9.160;2023-04-25T11:05:59;44.93;38.52;70.54;;
37833;Laerm;23678;48.778;9.160;2023-04-25T11:08:48;44.38;37.52;60.66;;
37833;Laerm;23678;48.778;9.160;2023-04-25T11:28:22;42.32;37.12;60.78;;
37833;Laerm;23678;48.778;9.160;2023-04-25T11:31:06;60.95;37.12;95.83;;
37833;Laerm;23678;48.778;9.160;2023-04-25T11:33:50;47.71;38.81;68.02;;
37833;Laerm;23678;48.778;9.160;2023-04-25T11:36:35;44.61;33.90;64.97;;
37833;Laerm;23678;48.778;9.160;2023-04-25T11:39:21;52.74;35.66;87.80;;
37833;Laerm;23678;48.778;9.160;2023-04-25T11:45:27;44.43;36.45;60.65;;
37833;Laerm;23678;48.778;9.160;2023-04-25T11:48:12;44.28;37.52;67.43;;
37833;Laerm;23678;48.778;9.160;2023-04-25T11:50:56;43.24;36.91;65.93;;
37833;Laerm;23678;48.778;9.160;2023-04-25T11:53:41;42.85;36.45;57.87;;
37833;Laerm;23678;48.778;9.160;2023-04-25T11:56:25;43.45;35.94;59.87;;
37833;Laerm;23678;48.778;9.160;2023-04-25T11:59:09;43.64;36.91;57.42;;
37833;Laerm;23678;48.778;9.160;2023-04-25T12:01:53;42.33;35.66;58.45;;
37833;Laerm;23678;48.778;9.160;2023-04-25T12:04:38;41.10;36.45;51.58;;
37833;Laerm;23678;48.778;9.160;2023-04-25T12:07:28;42.71;36.91;58.73;;
37833;Laerm;23678;48.778;9.160;2023-04-25T12:10:13;42.87;36.69;52.80;;
37833;Laerm;23678;48.778;9.160;2023-04-25T12:12:57;42.03;35.66;52.91;;
37833;Laerm;23678;48.778;9.160;2023-04-25T12:15:41;41.27;36.69;50.23;;
37833;Laerm;23678;48.778;9.160;2023-04-25T12:18:25;42.07;37.12;53.90;;
37833;Laerm;23678;48.778;9.160;2023-04-25T12:21:11;42.35;36.69;62.26;;
37833;Laerm;23678;48.778;9.160;2023-04-25T12:23:55;42.87;36.91;61.38;;
37833;Laerm;23678;48.778;9.160;2023-04-25T12:26:46;42.45;37.32;66.41;;
37833;Laerm;23678;48.778;9.160;2023-04-25T12:29:31;42.89;37.12;61.94;;
37833;Laerm;23678;48.778;9.160;2023-04-25T12:32:16;44.53;38.95;72.00;;
37833;Laerm;23678;48.778;9.160;2023-04-25T12:35:00;44.11;38.67;68.86;;
37833;Laerm;23678;48.778;9.160;2023-04-25T12:37:44;42.18;36.91;57.39;;
37833;Laerm;23678;48.778;9.160;2023-04-25T12:40:28;44.49;37.70;65.40;;
37833;Laerm;23678;48.778;9.160;2023-04-25T12:43:12;44.74;37.12;70.61;;
37833;Laerm;23678;48.778;9.160;2023-04-25T12:45:56;54.40;37.12;90.83;;
37833;Laerm;23678;48.778;9.160;2023-04-25T12:48:40;44.35;38.05;58.04;;
37833;Laerm;23678;48.778;9.160;2023-04-25T12:51:25;43.23;37.12;52.96;;
37833;Laerm;23678;48.778;9.160;2023-04-25T12:54:11;41.94;36.91;52.24;;
37833;Laerm;23678;48.778;9.160;2023-04-25T12:56:55;42.40;37.88;56.15;;
37833;Laerm;23678;48.778;9.160;2023-04-25T12:59:39;41.79;36.45;56.40;;
37833;Laerm;23678;48.778;9.160;2023-04-25T13:02:23;40.76;36.91;49.81;;
37833;Laerm;23678;48.778;9.160;2023-04-25T13:05:07;43.00;36.45;53.90;;
37833;Laerm;23678;48.778;9.160;2023-04-25T13:07:52;42.03;35.04;50.29;;
37833;Laerm;23678;48.778;9.160;2023-04-25T13:10:35;40.93;35.66;51.98;;
37833;Laerm;23678;48.778;9.160;2023-04-25T13:13:40;40.76;35.94;47.36;;
37833;Laerm;23678;48.778;9.160;2023-04-25T13:16:24;40.97;36.45;50.30;;
37833;Laerm;23678;48.778;9.160;2023-04-25T13:19:08;41.84;36.20;55.25;;
37833;Laerm;23678;48.778;9.160;2023-04-25T13:21:54;41.95;36.98;54.95;;
37833;Laerm;23678;48.778;9.160;2023-04-25T13:24:38;41.76;36.91;50.86;;
37833;Laerm;23678;48.778;9.160;2023-04-25T13:27:22;42.37;37.32;49.73;;
37833;Laerm;23678;48.778;9.160;2023-04-25T13:30:06;41.37;36.69;51.58;;
37833;Laerm;23678;48.778;9.160;2023-04-25T13:32:51;42.52;37.70;53.75;;
37833;Laerm;23678;48.778;9.160;2023-04-25T13:35:36;42.64;36.45;53.96;;
37833;Laerm;23678;48.778;9.160;2023-04-25T13:38:21;43.26;39.34;55.87;;
37833;Laerm;23678;48.778;9.160;2023-04-25T13:41:05;42.29;37.12;48.85;;
37833;Laerm;23678;48.778;9.160;2023-04-25T13:43:50;43.14;36.45;53.72;;
37833;Laerm;23678;48.778;9.160;2023-04-25T13:46:35;42.69;36.91;59.21;;
37833;Laerm;23678;48.778;9.160;2023-04-25T13:49:19;43.01;37.12;55.10;;
37833;Laerm;23678;48.778;9.160;2023-04-25T13:52:03;44.47;36.91;60.05;;
37833;Laerm;23678;48.778;9.160;2023-04-25T13:54:47;42.36;37.32;60.29;;
37833;Laerm;23678;48.778;9.160;2023-04-25T13:57:30;43.92;36.69;60.75;;
37833;Laerm;23678;48.778;9.160;2023-04-25T14:00:15;42.41;38.52;54.72;;
37833;Laerm;23678;48.778;9.160;2023-04-25T14:02:59;42.05;36.45;50.73;;
37833;Laerm;23678;48.778;9.160;2023-04-25T14:05:43;42.15;37.32;49.40;;
37833;Laerm;23678;48.778;9.160;2023-04-25T14:08:27;40.46;35.66;51.13;;
37833;Laerm;23678;48.778;9.160;2023-04-25T14:11:12;42.60;36.69;52.24;;
37833;Laerm;23678;48.778;9.160;2023-04-25T14:13:56;41.81;35.66;55.05;;
37833;Laerm;23678;48.778;9.160;2023-04-25T14:16:40;42.56;36.20;54.45;;
37833;Laerm;23678;48.778;9.160;2023-04-25T14:19:24;43.46;38.52;54.95;;
37833;Laerm;23678;48.778;9.160;2023-04-25T14:22:08;42.12;36.45;53.07;;
37833;Laerm;23678;48.778;9.160;2023-04-25T14:24:52;42.48;36.20;63.70;;
37833;Laerm;23678;48.778;9.160;2023-04-25T14:27:36;40.70;34.31;54.67;;
37833;Laerm;23678;48.778;9.160;2023-04-25T14:30:20;45.82;36.45;60.05;;
37833;Laerm;23678;48.778;9.160;2023-04-25T14:33:04;42.55;35.04;66.06;;
37833;Laerm;23678;48.778;9.160;2023-04-25T14:35:49;42.40;36.45;55.12;;
37833;Laerm;23678;48.778;9.160;2023-04-25T14:38:33;41.51;36.45;58.36;;
37833;Laerm;23678;48.778;9.160;2023-04-25T14:41:17;47.03;37.32;61.76;;
37833;Laerm;23678;48.778;9.160;2023-04-25T14:44:01;41.16;35.36;52.28;;
37833;Laerm;23678;48.778;9.160;2023-04-25T14:46:45;41.15;35.66;50.24;;
37833;Laerm;23678;48.778;9.160;2023-04-25T14:52:50;42.93;36.69;54.82;;
37833;Laerm;23678;48.778;9.160;2023-04-25T14:55:36;41.42;35.94;54.63;;
37833;Laerm;23678;48.778;9.160;2023-04-25T14:58:20;42.23;36.69;57.48;;
37833;Laerm;23678;48.778;9.160;2023-04-25T15:01:14;41.62;34.31;51.96;;
37833;Laerm;23678;48.778;9.160;2023-04-25T15:03:58;41.25;35.66;51.57;;
37833;Laerm;23678;48.778;9.160;2023-04-25T15:06:42;41.47;35.66;56.59;;
37833;Laerm;23678;48.778;9.160;2023-04-25T15:09:26;40.58;34.69;55.16;;
37833;Laerm;23678;48.778;9.160;2023-04-25T15:12:10;62.61;36.20;83.85;;
37833;Laerm;23678;48.778;9.160;2023-04-25T15:15:04;43.87;35.94;62.88;;
37833;Laerm;23678;48.778;9.160;2023-04-25T15:17:55;41.81;35.36;56.25;;
37833;Laerm;23678;48.778;9.160;2023-04-25T15:20:39;40.76;35.04;57.45;;
37833;Laerm;23678;48.778;9.160;2023-04-25T15:23:23;41.86;36.20;59.86;;
37833;Laerm;23678;48.778;9.160;2023-04-25T15:26:07;41.75;35.66;53.22;;
37833;Laerm;23678;48.778;9.160;2023-04-25T15:28:51;41.10;35.36;53.01;;
37833;Laerm;23678;48.778;9.160;2023-04-25T15:31:35;44.00;35.66;55.39;;
37833;Laerm;23678;48.778;9.160;2023-04-25T15:34:19;41.76;35.36;52.12;;
37833;Laerm;23678;48.778;9.160;2023-04-25T15:37:03;40.86;36.20;50.61;;
37833;Laerm;23678;48.778;9.160;2023-04-25T15:39:47;44.58;36.20;58.91;;
37833;Laerm;23678;48.778;9.160;2023-04-25T15:42:31;43.65;35.94;56.31;;
37833;Laerm;23678;48.778;9.160;2023-04-25T15:45:16;42.64;36.20;60.30;;
37833;Laerm;23678;48.778;9.160;2023-04-25T15:48:00;41.59;36.45;49.63;;
37833;Laerm;23678;48.778;9.160;2023-04-25T15:50:44;42.02;35.94;55.25;;
37833;Laerm;23678;48.778;9.160;2023-04-25T15:53:29;47.49;35.94;64.08;;
37833;Laerm;23678;48.778;9.160;2023-04-25T15:56:13;41.88;35.94;62.78;;
37833;Laerm;23678;48.778;9.160;2023-04-25T15:58:57;41.93;36.45;54.12;;
37833;Laerm;23678;48.778;9.160;2023-04-25T16:01:41;43.23;35.66;59.69;;
37833;Laerm;23678;48.778;9.160;2023-04-25T16:04:24;44.34;36.56;56.20;;
37833;Laerm;23678;48.778;9.160;2023-04-25T16:07:09;39.50;35.04;44.58;;
37833;Laerm;23678;48.778;9.160;2023-04-25T16:09:54;43.90;36.91;61.01;;
37833;Laerm;23678;48.778;9.160;2023-04-25T16:12:38;42.72;36.10;54.57;;
37833;Laerm;23678;48.778;9.160;2023-04-25T16:15:22;41.82;36.20;54.88;;
37833;Laerm;23678;48.778;9.160;2023-04-25T16:18:06;39.81;33.44;47.13;;
37833;Laerm;23678;48.778;9.160;2023-04-25T16:20:50;41.13;35.04;52.49;;
37833;Laerm;23678;48.778;9.160;2023-04-25T16:23:38;41.13;35.66;50.64;;
37833;Laerm;23678;48.778;9.160;2023-04-25T16:26:22;41.64;35.36;52.19;;
37833;Laerm;23678;48.778;9.160;2023-04-25T16:29:06;42.08;36.69;49.69;;
37833;Laerm;23678;48.778;9.160;2023-04-25T16:31:50;40.74;35.66;53.18;;
37833;Laerm;23678;48.778;9.160;2023-04-25T16:34:34;42.53;35.66;53.65;;
37833;Laerm;23678;48.778;9.160;2023-04-25T16:37:23;39.90;35.04;50.43;;
37833;Laerm;23678;48.778;9.160;2023-04-25T16:40:07;40.53;35.66;45.01;;
37833;Laerm;23678;48.778;9.160;2023-04-25T16:42:52;40.35;35.36;46.86;;
37833;Laerm;23678;48.778;9.160;2023-04-25T16:45:36;43.59;36.69;60.79;;
37833;Laerm;23678;48.778;9.160;2023-04-25T16:48:20;41.61;35.66;60.08;;
37833;Laerm;23678;48.778;9.160;2023-04-25T16:51:07;42.11;34.69;55.79;;
37833;Laerm;23678;48.778;9.160;2023-04-25T16:54:03;43.70;35.94;56.25;;
37833;Laerm;23678;48.778;9.160;2023-04-25T16:56:47;42.09;35.66;56.01;;
37833;Laerm;23678;48.778;9.160;2023-04-25T16:59:34;41.33;35.94;50.60;;
37833;Laerm;23678;48.778;9.160;2023-04-25T17:02:18;44.36;36.45;55.22;;
37833;Laerm;23678;48.778;9.160;2023-04-25T17:05:02;45.81;37.32;60.25;;
37833;Laerm;23678;48.778;9.160;2023-04-25T17:07:46;42.87;33.90;55.61;;
37833;Laerm;23678;48.778;9.160;2023-04-25T17:10:30;41.35;34.31;54.16;;
37833;Laerm;23678;48.778;9.160;2023-04-25T17:13:14;40.80;34.31;53.86;;
37833;Laerm;23678;48.778;9.160;2023-04-25T17:15:58;42.37;36.20;54.57;;
37833;Laerm;23678;48.778;9.160;2023-04-25T17:18:43;42.24;36.69;59.16;;
37833;Laerm;23678;48.778;9.160;2023-04-25T17:21:27;41.52;35.36;57.30;;
37833;Laerm;23678;48.778;9.160;2023-04-25T17:24:11;43.44;37.32;59.07;;
37833;Laerm;23678;48.778;9.160;2023-04-25T17:26:57;42.14;35.04;56.54;;
37833;Laerm;23678;48.778;9.160;2023-04-25T17:29:41;42.29;34.69;54.71;;
37833;Laerm;23678;48.778;9.160;2023-04-25T17:32:25;41.68;35.66;56.12;;
37833;Laerm;23678;48.778;9.160;2023-04-25T17:35:10;42.37;36.34;60.33;;
37833;Laerm;23678;48.778;9.160;2023-04-25T17:37:53;41.60;36.45;50.74;;